Time;durP1;ratioP1;P1;durP2;ratioP2;P2;SDS_P1;SDS_P2;PMS_P1;PMS_P2;Temp;Humidity;BMP_temperature;BMP_pressure;BME280_temperature;BME280_humidity;BME280_pressure;Samples;Min_cycle;Max_cycle;Signal;HPM_P1;HPM_P2
2021/07/22 00:00:02;;;;;;;6.30;3.50;;;;;;;19.14;64.42;100105.97;1665710;84;21541;-76
2021/07/22 00:02:31;;;;;;;7.83;3.60;;;;;;;19.09;65.12;100103.45;1674084;84;21514;-77
2021/07/22 00:04:57;;;;;;;6.50;3.03;;;;;;;19.04;65.82;100101.70;1670596;84;21062;-75
2021/07/22 00:07:24;;;;;;;6.20;3.60;;;;;;;19.00;66.49;100103.48;1666699;84;21046;-75
2021/07/22 00:09:51;;;;;;;6.03;3.20;;;;;;;18.94;67.04;100109.62;1656368;84;21540;-75
2021/07/22 00:12:17;;;;;;;5.93;2.90;;;;;;;18.90;67.55;100110.03;1663154;84;21608;-75
2021/07/22 00:14:43;;;;;;;6.63;3.17;;;;;;;18.86;68.06;100106.96;1665145;84;21649;-75
2021/07/22 00:17:10;;;;;;;6.77;3.37;;;;;;;18.81;68.44;100105.20;1665284;84;21662;-78
2021/07/22 00:19:37;;;;;;;6.67;3.30;;;;;;;18.76;68.71;100109.45;1665664;84;21664;-78
2021/07/22 00:22:04;;;;;;;5.60;3.10;;;;;;;18.73;68.82;100112.80;1669684;84;21054;-70
2021/07/22 00:24:31;;;;;;;8.97;3.10;;;;;;;18.69;68.76;100108.56;1668129;84;21067;-70
2021/07/22 00:26:58;;;;;;;7.57;3.90;;;;;;;18.68;68.57;100109.66;1667836;84;21157;-70
2021/07/22 00:29:29;;;;;;;11.23;3.80;;;;;;;18.68;68.38;100110.22;1664268;84;21110;-70
2021/07/22 00:31:53;;;;;;;12.40;4.90;;;;;;;18.70;67.91;100114.77;1667572;84;21101;-70
2021/07/22 00:34:20;;;;;;;13.20;4.53;;;;;;;18.72;67.33;100115.25;1677775;84;21082;-69
2021/07/22 00:36:46;;;;;;;15.57;4.60;;;;;;;18.77;67.00;100105.63;1674524;84;21102;-69
2021/07/22 00:39:15;;;;;;;10.80;4.83;;;;;;;18.81;66.64;100113.89;1675018;84;21521;-69
2021/07/22 00:41:43;;;;;;;12.47;4.50;;;;;;;18.85;66.46;100118.31;1662476;85;21114;-70
2021/07/22 00:44:10;;;;;;;11.87;4.43;;;;;;;18.87;66.43;100126.13;1670594;84;21074;-69
2021/07/22 00:46:37;;;;;;;11.50;4.30;;;;;;;18.87;66.50;100122.86;1670789;86;21570;-69
2021/07/22 00:49:10;;;;;;;11.53;4.60;;;;;;;18.85;66.45;100122.37;1662351;84;21565;-69
2021/07/22 00:51:38;;;;;;;11.67;4.20;;;;;;;18.83;66.30;100124.63;1666469;84;21960;-70
2021/07/22 00:54:06;;;;;;;9.63;3.47;;;;;;;18.81;66.13;100124.14;1704209;82;21082;-70
2021/07/22 00:56:34;;;;;;;11.07;3.83;;;;;;;18.79;65.48;100122.34;1670020;84;21601;-70
2021/07/22 00:59:02;;;;;;;9.70;3.60;;;;;;;18.82;65.21;100127.11;1678635;84;21498;-70
2021/07/22 01:01:29;;;;;;;11.43;4.43;;;;;;;18.86;65.09;100129.96;1674985;83;21120;-70
2021/07/22 01:03:57;;;;;;;9.00;3.73;;;;;;;18.85;64.89;100122.94;1673045;84;21518;-71
2021/07/22 01:06:24;;;;;;;13.00;4.30;;;;;;;18.84;64.66;100130.27;1690237;84;21019;-70
2021/07/22 01:08:51;;;;;;;10.03;3.73;;;;;;;18.83;64.63;100127.89;1651933;84;21003;-70
2021/07/22 01:11:20;;;;;;;13.53;4.43;;;;;;;18.81;64.62;100126.85;1664060;84;21054;-70
2021/07/22 01:13:48;;;;;;;12.73;4.20;;;;;;;18.80;64.61;100129.89;1654061;85;21019;-70
2021/07/22 01:16:15;;;;;;;12.30;4.23;;;;;;;18.77;64.55;100136.73;1665495;85;21505;-70
2021/07/22 01:18:45;;;;;;;14.33;4.33;;;;;;;18.74;64.27;100140.88;1652408;84;21023;-71
2021/07/22 01:21:12;;;;;;;15.17;4.33;;;;;;;18.73;64.09;100142.56;1666986;84;21462;-70
2021/07/22 01:23:39;;;;;;;13.50;4.50;;;;;;;18.72;63.84;100135.54;1675497;84;21687;-71
2021/07/22 01:26:24;;;;;;;10.00;4.33;;;;;;;18.72;63.98;100145.02;1665392;84;21521;-70
2021/07/22 01:28:52;;;;;;;12.33;4.30;;;;;;;18.71;64.17;100144.75;1659662;84;21124;-70
2021/07/22 01:31:26;;;;;;;10.77;3.80;;;;;;;18.69;64.07;100144.27;1663598;84;21145;-71
2021/07/22 01:33:53;;;;;;;11.80;3.67;;;;;;;18.68;63.66;100139.98;1676847;84;21024;-71
2021/07/22 01:36:23;;;;;;;12.30;4.10;;;;;;;18.68;63.73;100140.77;1665095;84;21086;-71
2021/07/22 01:38:53;;;;;;;19.53;4.47;;;;;;;18.69;63.75;100138.86;1665329;84;21046;-71
2021/07/22 01:41:20;;;;;;;12.63;3.93;;;;;;;18.67;63.69;100146.52;1672320;84;22151;-71
2021/07/22 01:43:49;;;;;;;8.90;4.10;;;;;;;18.66;63.70;100146.29;1672278;84;21474;-71
2021/07/22 01:46:20;;;;;;;11.37;3.70;;;;;;;18.66;63.94;100146.29;1675336;83;21110;-71
2021/07/22 01:48:48;;;;;;;7.30;3.60;;;;;;;18.63;63.76;100145.58;1669217;84;21106;-72
2021/07/22 01:51:15;;;;;;;6.73;3.43;;;;;;;18.62;63.81;100141.27;1673076;84;21069;-71
2021/07/22 01:53:43;;;;;;;10.33;3.80;;;;;;;18.59;63.94;100151.36;1667343;84;21196;-71
2021/07/22 01:56:12;;;;;;;8.20;3.17;;;;;;;18.57;63.91;100155.76;1652541;85;20983;-71
2021/07/22 01:58:39;;;;;;;10.77;3.70;;;;;;;18.53;63.81;100150.76;1668185;84;21109;-71
2021/07/22 02:01:06;;;;;;;11.10;3.50;;;;;;;18.51;63.90;100158.38;1670749;84;21348;-71
2021/07/22 02:03:33;;;;;;;11.07;3.63;;;;;;;18.49;63.92;100157.37;1658086;84;20989;-71
2021/07/22 02:06:09;;;;;;;9.17;3.50;;;;;;;18.47;63.77;100162.28;1670499;84;21540;-70
2021/07/22 02:08:37;;;;;;;10.47;3.50;;;;;;;18.46;63.86;100167.47;1656857;85;21055;-71
2021/07/22 02:11:05;;;;;;;11.77;3.30;;;;;;;18.44;63.79;100176.45;1667373;84;21116;-70
2021/07/22 02:13:33;;;;;;;8.83;3.37;;;;;;;18.42;63.84;100176.52;1670563;84;21155;-71
2021/07/22 02:16:02;;;;;;;10.97;3.70;;;;;;;18.37;64.03;100168.02;1676086;84;21023;-71
2021/07/22 02:18:32;;;;;;;7.55;3.08;;;;;;;18.33;63.97;100170.31;1703057;83;21892;-71
2021/07/22 02:21:09;;;;;;;9.87;3.53;;;;;;;18.31;64.21;100172.55;1668939;84;20985;-70
2021/07/22 02:23:38;;;;;;;9.43;3.70;;;;;;;18.27;64.27;100172.39;1670989;84;20967;-70
2021/07/22 02:26:14;;;;;;;10.23;4.07;;;;;;;18.25;64.34;100172.70;1682775;84;21135;-70
2021/07/22 02:28:41;;;;;;;10.97;3.63;;;;;;;18.24;64.36;100168.97;1661819;84;21007;-70
2021/07/22 02:31:08;;;;;;;12.70;4.33;;;;;;;18.23;64.30;100175.50;1662576;84;21527;-71
2021/07/22 02:33:35;;;;;;;14.50;4.33;;;;;;;18.22;64.31;100174.69;1659266;84;21027;-71
2021/07/22 02:36:03;;;;;;;12.83;3.53;;;;;;;18.22;64.27;100179.30;1676323;84;21011;-70
2021/07/22 02:38:44;;;;;;;10.05;3.83;;;;;;;18.21;63.97;100182.56;1617380;84;21043;-70
2021/07/22 02:41:11;;;;;;;11.73;3.53;;;;;;;18.20;63.99;100175.58;1666322;84;21846;-70
2021/07/22 02:43:41;;;;;;;8.67;3.00;;;;;;;18.20;64.10;100180.19;1664188;84;21950;-69
2021/07/22 02:46:12;;;;;;;10.07;3.10;;;;;;;18.20;64.17;100178.84;1668585;83;21101;-70
2021/07/22 02:48:41;;;;;;;10.20;3.43;;;;;;;18.20;64.16;100185.03;1668713;84;21078;-69
2021/07/22 02:51:09;;;;;;;10.37;3.50;;;;;;;18.20;64.04;100185.03;1667773;84;21009;-70
2021/07/22 02:53:36;;;;;;;12.53;3.93;;;;;;;18.21;64.16;100192.02;1665611;84;21062;-70
2021/07/22 02:56:07;;;;;;;14.38;4.55;;;;;;;18.23;64.18;100193.08;1675033;84;21131;-70
2021/07/22 02:58:35;;;;;;;17.93;4.63;;;;;;;18.23;64.23;100197.13;1659640;86;20979;-70
2021/07/22 03:01:02;;;;;;;13.90;4.20;;;;;;;18.24;64.28;100196.01;1671758;84;21494;-70
2021/07/22 03:03:30;;;;;;;10.10;3.00;;;;;;;18.24;64.24;100199.50;1668378;84;20976;-69
2021/07/22 03:05:57;;;;;;;8.23;3.13;;;;;;;18.26;64.13;100211.34;1680581;84;21593;-70
2021/07/22 03:08:25;;;;;;;8.03;2.93;;;;;;;18.27;64.01;100211.59;1671211;84;21583;-69
2021/07/22 03:10:52;;;;;;;6.87;2.90;;;;;;;18.30;64.22;100218.28;1675276;84;21011;-69
2021/07/22 03:13:19;;;;;;;6.20;3.23;;;;;;;18.31;64.35;100220.66;1667657;84;21067;-70
2021/07/22 03:15:46;;;;;;;6.47;2.80;;;;;;;18.34;64.28;100219.23;1647636;84;21062;-69
2021/07/22 03:18:14;;;;;;;8.07;2.90;;;;;;;18.35;64.43;100227.02;1678976;84;20992;-70
2021/07/22 03:20:43;;;;;;;7.50;2.90;;;;;;;18.37;64.22;100226.72;1633188;86;21493;-70
2021/07/22 03:23:10;;;;;;;5.73;3.07;;;;;;;18.39;64.42;100225.27;1637306;85;21045;-70
2021/07/22 03:25:38;;;;;;;6.53;3.10;;;;;;;18.42;64.33;100226.55;1632881;85;21091;-70
2021/07/22 03:28:23;;;;;;;8.50;3.00;;;;;;;18.43;64.50;100226.24;1638628;85;21567;-70
2021/07/22 03:30:57;;;;;;;10.60;3.27;;;;;;;18.46;64.49;100230.23;1641354;85;21125;-70
2021/07/22 03:33:26;;;;;;;11.20;3.53;;;;;;;18.49;64.39;100233.09;1640927;85;21129;-70
2021/07/22 03:35:55;;;;;;;8.70;3.47;;;;;;;18.55;64.55;100234.27;1640325;85;21725;-69
2021/07/22 03:38:23;;;;;;;9.23;3.97;;;;;;;18.59;64.67;100235.22;1640925;85;21516;-69
2021/07/22 03:41:16;;;;;;;9.10;3.40;;;;;;;18.63;64.99;100236.19;1641492;85;21008;-69
2021/07/22 03:43:44;;;;;;;7.57;3.60;;;;;;;18.68;65.98;100236.81;1639673;85;21079;-69
2021/07/22 03:46:10;;;;;;;8.93;3.70;;;;;;;18.70;66.84;100237.86;1643419;85;22275;-70
2021/07/22 03:48:37;;;;;;;7.17;3.40;;;;;;;18.70;67.41;100238.65;1632621;85;21093;-69
2021/07/22 03:51:04;;;;;;;6.87;3.33;;;;;;;18.69;67.79;100232.19;1644276;85;21044;-69
2021/07/22 03:53:33;;;;;;;7.10;3.53;;;;;;;18.69;68.15;100240.30;1640525;85;21542;-69
2021/07/22 03:56:01;;;;;;;6.13;3.47;;;;;;;18.69;68.23;100238.95;1644061;85;21135;-70
2021/07/22 03:58:35;;;;;;;8.13;3.50;;;;;;;18.69;68.10;100240.30;1641868;85;21131;-69
2021/07/22 04:01:06;;;;;;;9.37;4.03;;;;;;;18.72;68.15;100246.46;1636652;85;21892;-68
2021/07/22 04:03:35;;;;;;;8.80;4.17;;;;;;;18.75;68.37;100247.17;1635530;85;21098;-70
2021/07/22 04:06:03;;;;;;;10.67;3.87;;;;;;;18.80;68.58;100248.94;1641034;85;20991;-69
2021/07/22 04:08:30;;;;;;;6.37;3.73;;;;;;;18.83;68.82;100254.52;1642117;85;21168;-70
2021/07/22 04:11:01;;;;;;;5.90;3.70;;;;;;;18.87;68.90;100252.75;1638978;85;21183;-69
2021/07/22 04:13:29;;;;;;;9.77;4.20;;;;;;;18.92;68.91;100251.25;1627470;85;21596;-69
2021/07/22 04:16:04;;;;;;;7.47;4.17;;;;;;;18.98;68.82;100254.56;1626009;85;21509;-69
2021/07/22 04:18:36;;;;;;;11.13;4.53;;;;;;;19.04;68.72;100260.61;1621682;85;21042;-70
2021/07/22 04:21:07;;;;;;;9.95;3.77;;;;;;;19.06;68.09;100259.19;1622037;85;21114;-70
2021/07/22 04:23:37;;;;;;;9.47;4.23;;;;;;;19.11;67.81;100252.23;1642167;85;21170;-69
2021/07/22 04:26:15;;;;;;;11.00;4.20;;;;;;;19.19;67.98;100257.41;1630514;85;21437;-70
2021/07/22 04:28:47;;;;;;;11.30;3.63;;;;;;;19.26;67.39;100260.42;1645095;85;21106;-70
2021/07/22 04:31:18;;;;;;;11.53;3.87;;;;;;;19.31;65.63;100264.85;1643828;85;21123;-70
2021/07/22 04:33:52;;;;;;;8.47;3.47;;;;;;;19.35;65.27;100274.73;1641915;85;21076;-69
2021/07/22 04:36:18;;;;;;;6.37;2.90;;;;;;;19.39;64.33;100268.91;1627433;85;21163;-70
2021/07/22 04:38:49;;;;;;;7.65;3.22;;;;;;;19.41;63.25;100266.68;1643060;86;21060;-70
2021/07/22 04:41:29;;;;;;;7.23;2.83;;;;;;;19.41;62.74;100276.16;1647094;85;21558;-69
2021/07/22 04:44:07;;;;;;;6.47;2.90;;;;;;;19.41;62.52;100273.45;1632834;85;21739;-69
2021/07/22 04:46:54;;;;;;;5.00;2.77;;;;;;;19.43;62.49;100272.55;1645331;85;21471;-69
2021/07/22 04:49:42;;;;;;;10.00;3.33;;;;;;;19.44;62.54;100266.57;1641946;85;21082;-71
2021/07/22 04:52:11;;;;;;;5.23;2.80;;;;;;;19.45;62.45;100277.09;1646111;85;21112;-69
2021/07/22 04:54:43;;;;;;;4.57;2.40;;;;;;;19.50;62.40;100273.97;1643432;85;21043;-70
2021/07/22 04:57:10;;;;;;;6.83;2.90;;;;;;;19.53;61.72;100264.63;1639404;85;21139;-70
2021/07/22 04:59:39;;;;;;;5.80;2.67;;;;;;;19.55;61.35;100275.95;1634423;85;21071;-70
2021/07/22 05:02:05;;;;;;;5.03;2.50;;;;;;;19.59;61.52;100274.74;1636590;85;21560;-71
2021/07/22 05:04:34;;;;;;;6.67;2.97;;;;;;;19.63;61.16;100266.20;1661142;84;21087;-70
2021/07/22 05:07:01;;;;;;;8.17;2.60;;;;;;;19.66;61.22;100269.64;1638499;85;21550;-71
2021/07/22 05:09:45;;;;;;;5.60;2.50;;;;;;;19.71;61.01;100269.48;1637442;85;21187;-70
2021/07/22 05:12:29;;;;;;;5.87;2.67;;;;;;;19.76;60.89;100263.07;1640975;85;21154;-70
2021/07/22 05:15:01;;;;;;;6.08;2.80;;;;;;;19.77;59.92;100259.23;1639999;85;21307;-71
2021/07/22 05:17:45;;;;;;;5.27;2.80;;;;;;;19.75;59.31;100269.05;1636629;85;21082;-70
2021/07/22 05:20:30;;;;;;;4.73;2.53;;;;;;;19.76;59.94;100269.28;1640944;85;21597;-71
2021/07/22 05:23:07;;;;;;;4.27;2.30;;;;;;;19.82;59.40;100270.69;1588249;88;21190;-71
2021/07/22 05:25:52;;;;;;;5.57;2.50;;;;;;;19.84;58.43;100279.30;1641827;85;21117;-71
2021/07/22 05:28:24;;;;;;;5.33;2.42;;;;;;;19.86;58.45;100280.31;1640281;84;21627;-70
2021/07/22 05:30:55;;;;;;;7.20;2.35;;;;;;;19.88;58.05;100280.80;1637287;85;21558;-70
2021/07/22 05:33:23;;;;;;;5.67;2.60;;;;;;;19.91;57.67;100272.80;1638288;85;21131;-70
2021/07/22 05:35:52;;;;;;;6.33;2.37;;;;;;;19.91;58.08;100281.50;1639693;85;21146;-71
2021/07/22 05:38:39;;;;;;;4.80;2.30;;;;;;;19.96;57.58;100285.37;1637963;85;21534;-72
2021/07/22 05:41:09;;;;;;;6.23;2.70;;;;;;;20.00;57.09;100276.81;1634805;85;21189;-71
2021/07/22 05:43:36;;;;;;;7.30;2.80;;;;;;;20.03;57.22;100280.79;1637496;85;21058;-71
2021/07/22 05:46:03;;;;;;;4.77;2.77;;;;;;;20.10;57.20;100287.31;1655087;85;21644;-72
2021/07/22 05:48:30;;;;;;;4.87;2.60;;;;;;;20.20;56.97;100286.67;1629868;86;21186;-72
2021/07/22 05:51:01;;;;;;;4.43;2.40;;;;;;;20.30;57.13;100289.00;1641019;85;21087;-71
2021/07/22 05:53:28;;;;;;;4.22;2.45;;;;;;;20.35;56.57;100277.41;1671244;84;21889;-71
2021/07/22 05:56:03;;;;;;;5.33;2.50;;;;;;;20.44;56.70;100285.50;1664755;84;21772;-71
2021/07/22 05:58:27;;;;;;;6.97;2.50;;;;;;;20.52;56.57;100290.66;1669970;84;21400;-72
2021/07/22 06:00:55;;;;;;;5.47;2.87;;;;;;;20.57;55.64;100298.05;1670114;84;21062;-71
2021/07/22 06:03:22;;;;;;;5.33;2.40;;;;;;;20.58;55.44;100294.77;1671047;84;21126;-70
2021/07/22 06:05:48;;;;;;;6.77;2.90;;;;;;;20.57;55.72;100295.90;1667701;84;21486;-70
2021/07/22 06:08:15;;;;;;;4.53;2.70;;;;;;;20.64;56.00;100298.08;1661920;84;21159;-71
2021/07/22 06:10:42;;;;;;;7.13;2.60;;;;;;;20.71;55.90;100295.06;1668731;84;21065;-71
2021/07/22 06:13:10;;;;;;;4.47;2.30;;;;;;;20.80;55.74;100298.52;1665174;84;21038;-71
2021/07/22 06:15:37;;;;;;;3.47;2.07;;;;;;;20.89;55.06;100298.98;1668015;84;21534;-71
2021/07/22 06:18:03;;;;;;;4.23;2.33;;;;;;;20.91;54.94;100292.67;1664800;84;21539;-72
2021/07/22 06:20:30;;;;;;;5.67;2.43;;;;;;;20.94;55.18;100291.44;1664862;84;21208;-72
2021/07/22 06:22:57;;;;;;;7.00;2.90;;;;;;;20.99;54.64;100293.97;1668325;84;21085;-71
2021/07/22 06:25:24;;;;;;;3.90;2.30;;;;;;;21.05;54.81;100296.67;1673957;84;21024;-71
2021/07/22 06:27:51;;;;;;;4.53;2.50;;;;;;;21.13;54.71;100295.03;1665414;84;21066;-71
2021/07/22 06:30:17;;;;;;;5.07;2.47;;;;;;;21.20;53.56;100291.20;1673550;84;21095;-71
2021/07/22 06:32:44;;;;;;;4.77;2.37;;;;;;;21.23;53.24;100300.04;1669610;84;21189;-71
2021/07/22 06:35:11;;;;;;;5.17;2.50;;;;;;;21.25;53.33;100299.69;1667626;84;21059;-71
2021/07/22 06:37:45;;;;;;;5.17;2.30;;;;;;;21.28;52.36;100300.38;1665915;84;21485;-71
2021/07/22 06:40:13;;;;;;;9.40;2.60;;;;;;;21.30;52.47;100290.77;1668157;84;21015;-71
2021/07/22 06:42:41;;;;;;;5.37;2.70;;;;;;;21.38;52.58;100297.27;1661300;84;21147;-71
2021/07/22 06:45:09;;;;;;;5.63;2.33;;;;;;;21.43;52.86;100304.43;1663353;84;21051;-71
2021/07/22 06:47:39;;;;;;;5.10;2.83;;;;;;;21.48;53.00;100296.84;1657241;84;21137;-71
2021/07/22 06:50:10;;;;;;;4.90;2.77;;;;;;;21.52;52.75;100300.49;1664911;84;21545;-71
2021/07/22 06:52:39;;;;;;;5.53;2.50;;;;;;;21.57;52.40;100297.32;1664388;84;21358;-71
2021/07/22 06:55:07;;;;;;;4.53;2.30;;;;;;;21.62;52.13;100295.19;1671991;83;21138;-71
2021/07/22 06:57:34;;;;;;;5.47;2.87;;;;;;;21.65;52.22;100297.77;1668360;84;21057;-71
2021/07/22 07:00:01;;;;;;;3.73;2.13;;;;;;;21.67;52.60;100296.31;1670137;84;21070;-71
2021/07/22 07:02:28;;;;;;;5.37;2.50;;;;;;;21.76;51.57;100306.52;1670122;84;21616;-71
2021/07/22 07:04:54;;;;;;;3.97;2.30;;;;;;;21.82;50.65;100303.02;1673882;84;21113;-72
2021/07/22 07:07:22;;;;;;;4.57;2.50;;;;;;;21.83;50.45;100307.32;1644453;84;21442;-72
2021/07/22 07:09:49;;;;;;;4.80;2.10;;;;;;;21.82;50.86;100303.02;1665329;84;21629;-71
2021/07/22 07:12:16;;;;;;;5.40;2.63;;;;;;;21.87;51.41;100297.34;1661529;84;21089;-72
2021/07/22 07:14:43;;;;;;;5.10;2.70;;;;;;;21.93;50.83;100293.27;1673753;84;21034;-72
2021/07/22 07:17:11;;;;;;;5.50;2.53;;;;;;;21.94;50.55;100303.58;1666797;84;21903;-72
2021/07/22 07:19:38;;;;;;;5.37;2.40;;;;;;;21.93;50.18;100307.44;1660145;84;21912;-73
2021/07/22 07:22:05;;;;;;;5.70;2.20;;;;;;;21.99;49.90;100300.65;1662549;84;21106;-71
2021/07/22 07:24:32;;;;;;;5.40;2.50;;;;;;;22.07;49.73;100311.97;1668330;86;21610;-71
2021/07/22 07:26:58;;;;;;;5.03;2.30;;;;;;;22.14;49.07;100309.47;1666947;84;21078;-77
2021/07/22 07:29:25;;;;;;;4.97;2.37;;;;;;;22.14;49.49;100305.39;1664388;84;21074;-69
2021/07/22 07:32:01;;;;;;;4.70;2.50;;;;;;;22.15;49.87;100320.62;1662055;84;21183;-71
2021/07/22 07:34:28;;;;;;;4.87;2.20;;;;;;;22.20;49.63;100316.30;1653970;84;21564;-72
2021/07/22 07:36:56;;;;;;;5.67;2.40;;;;;;;22.26;49.35;100301.12;1662154;84;21125;-72
2021/07/22 07:39:23;;;;;;;4.77;2.37;;;;;;;22.26;49.04;100306.56;1661587;84;21138;-71
2021/07/22 07:41:50;;;;;;;4.00;2.10;;;;;;;22.21;49.60;100307.02;1665535;84;21098;-72
2021/07/22 07:44:17;;;;;;;4.83;2.40;;;;;;;22.27;49.24;100299.97;1664842;84;21533;-72
2021/07/22 07:46:45;;;;;;;4.63;2.47;;;;;;;22.34;48.93;100306.45;1664782;84;21042;-70
2021/07/22 07:49:12;;;;;;;4.00;2.23;;;;;;;22.36;48.65;100314.25;1664508;84;21588;-72
2021/07/22 07:51:40;;;;;;;4.33;2.30;;;;;;;22.33;48.73;100312.22;1665193;84;21505;-72
2021/07/22 07:54:06;;;;;;;3.90;2.37;;;;;;;22.29;49.12;100310.75;1664544;84;21057;-71
2021/07/22 07:56:33;;;;;;;5.40;2.50;;;;;;;22.32;49.90;100303.84;1666204;84;21215;-71
2021/07/22 07:59:00;;;;;;;4.27;2.67;;;;;;;22.43;50.22;100304.37;1663904;83;22371;-71
2021/07/22 08:01:30;;;;;;;4.00;2.50;;;;;;;22.58;49.71;100306.96;1666068;84;21097;-70
2021/07/22 08:03:57;;;;;;;3.90;2.23;;;;;;;22.68;48.86;100309.77;1665832;84;21620;-72
2021/07/22 08:06:23;;;;;;;6.90;2.63;;;;;;;22.69;49.23;100315.44;1663855;84;22511;-71
2021/07/22 08:08:51;;;;;;;4.40;2.20;;;;;;;22.69;48.45;100316.22;1663695;84;21157;-72
2021/07/22 08:11:18;;;;;;;3.93;2.47;;;;;;;22.73;48.94;100316.33;1662771;84;21196;-73
2021/07/22 08:13:46;;;;;;;5.23;2.50;;;;;;;22.85;49.02;100316.88;1665622;84;21062;-71
2021/07/22 08:29:18;;;;;;;7.60;3.07;;;;;;;23.47;46.56;100299.13;1795530;77;27013;-72
2021/07/22 08:31:45;;;;;;;5.57;2.50;;;;;;;23.45;46.98;100310.94;1808643;78;21096;-71
2021/07/22 08:34:14;;;;;;;4.73;2.80;;;;;;;23.50;46.21;100309.91;1818051;78;22133;-71
2021/07/22 08:36:41;;;;;;;4.87;2.60;;;;;;;23.55;45.81;100307.70;1805980;78;21155;-71
2021/07/22 08:39:09;;;;;;;5.20;2.50;;;;;;;23.65;45.69;100299.56;1808319;77;20933;-72
2021/07/22 08:41:36;;;;;;;4.30;2.50;;;;;;;23.74;45.81;100312.49;1807023;78;21076;-71
2021/07/22 08:44:05;;;;;;;4.03;2.53;;;;;;;23.88;45.50;100303.29;1812473;78;21073;-71
2021/07/22 08:46:32;;;;;;;3.97;2.10;;;;;;;23.97;45.39;100296.88;1789478;78;22161;-71
2021/07/22 08:48:59;;;;;;;3.90;2.47;;;;;;;24.05;44.93;100301.34;1812188;77;21002;-71
2021/07/22 08:51:26;;;;;;;4.67;2.30;;;;;;;24.11;43.62;100314.36;1801447;78;21021;-72
2021/07/22 08:53:53;;;;;;;4.27;2.20;;;;;;;24.14;43.01;100309.34;1795998;78;21159;-72
2021/07/22 08:56:23;;;;;;;5.70;2.40;;;;;;;24.07;42.36;100297.69;1809165;77;21005;-72
2021/07/22 08:58:49;;;;;;;2.93;1.80;;;;;;;24.04;42.24;100296.46;1802375;77;22103;-71
2021/07/22 09:01:16;;;;;;;5.57;2.30;;;;;;;24.08;41.99;100308.23;1809395;78;20994;-71
2021/07/22 09:03:43;;;;;;;3.63;2.20;;;;;;;24.08;41.33;100306.88;1808259;78;21084;-72
2021/07/22 09:06:16;;;;;;;4.17;2.10;;;;;;;24.08;41.00;100309.60;1812985;78;21123;-71
2021/07/22 09:08:42;;;;;;;3.67;1.90;;;;;;;24.13;40.70;100304.47;1812758;78;21048;-72
2021/07/22 09:11:11;;;;;;;3.23;1.77;;;;;;;24.09;40.03;100313.94;1807293;78;21083;-71
2021/07/22 09:13:38;;;;;;;6.37;2.20;;;;;;;23.94;40.55;100309.27;1770427;79;21030;-71
2021/07/22 09:16:08;;;;;;;4.63;2.00;;;;;;;23.86;40.09;100321.95;1769283;79;21011;-69
2021/07/22 09:18:38;;;;;;;5.80;1.80;;;;;;;23.79;39.76;100318.25;1737239;80;21057;-71
2021/07/22 09:21:22;;;;;;;4.03;1.90;;;;;;;23.82;39.24;100319.73;1767750;79;21162;-70
2021/07/22 09:24:09;;;;;;;3.17;1.90;;;;;;;23.90;39.63;100309.77;1765926;79;21131;-71
2021/07/22 09:26:39;;;;;;;3.27;1.87;;;;;;;24.04;38.53;100301.91;1757125;79;21510;-70
2021/07/22 09:29:10;;;;;;;5.23;1.70;;;;;;;24.24;38.62;100312.89;1767705;79;21083;-70
2021/07/22 09:31:36;;;;;;;3.37;1.60;;;;;;;24.29;36.88;100303.08;1737675;80;21061;-71
2021/07/22 09:34:04;;;;;;;3.57;1.67;;;;;;;24.19;37.71;100305.78;1761710;79;21071;-71
2021/07/22 09:36:33;;;;;;;3.03;1.83;;;;;;;24.23;37.14;100300.41;1768787;79;20969;-71
2021/07/22 09:39:23;;;;;;;3.30;1.80;;;;;;;24.34;36.66;100306.30;1769566;79;21093;-71
2021/07/22 09:42:04;;;;;;;3.60;1.77;;;;;;;24.46;36.31;100309.53;1775833;79;20959;-70
2021/07/22 09:44:36;;;;;;;3.13;1.93;;;;;;;24.48;35.35;100309.16;1766841;78;22134;-71
2021/07/22 09:47:06;;;;;;;3.02;1.70;;;;;;;24.50;36.29;100310.39;1748361;79;21197;-70
2021/07/22 09:49:36;;;;;;;3.67;1.70;;;;;;;24.51;36.46;100316.09;1779782;78;21161;-71
2021/07/22 09:52:19;;;;;;;2.90;1.60;;;;;;;24.59;36.32;100310.77;1760741;79;21592;-71
2021/07/22 09:54:46;;;;;;;3.03;1.70;;;;;;;24.72;37.11;100306.76;1737560;79;21107;-71
2021/07/22 09:57:20;;;;;;;4.83;2.23;;;;;;;24.82;37.16;100318.48;1742858;81;21136;-69
2021/07/22 09:59:49;;;;;;;6.03;2.07;;;;;;;24.80;39.23;100322.13;1770819;79;22097;-70
2021/07/22 10:02:24;;;;;;;4.77;2.20;;;;;;;24.67;41.03;100320.69;1769503;81;21941;-70
2021/07/22 10:05:02;;;;;;;4.37;2.00;;;;;;;24.51;42.08;100321.55;1764678;81;21006;-71
2021/07/22 10:07:31;;;;;;;2.80;1.90;;;;;;;24.48;40.72;100311.34;1756321;80;21109;-71
2021/07/22 10:09:58;;;;;;;5.17;1.90;;;;;;;24.63;38.30;100305.59;1750576;79;21063;-71
2021/07/22 10:12:25;;;;;;;4.80;2.30;;;;;;;24.87;38.48;100312.71;1767544;78;21139;-71
2021/07/22 10:14:55;;;;;;;6.83;2.20;;;;;;;25.07;38.94;100334.57;1766343;79;21852;-71
2021/07/22 10:17:33;;;;;;;5.90;2.40;;;;;;;25.11;39.84;100317.11;1767080;79;21080;-70
2021/07/22 12:54:42;;;;;;;3.03;1.40;;;;;;;25.33;31.48;100307.95;1785342;78;26391;-71
2021/07/22 12:57:09;;;;;;;3.60;1.50;;;;;;;25.30;31.13;100307.31;1753288;80;21014;-70
2021/07/22 12:59:36;;;;;;;3.30;1.40;;;;;;;25.25;30.70;100306.47;1764299;80;21146;-71
2021/07/22 13:02:03;;;;;;;3.13;1.40;;;;;;;25.17;30.03;100300.67;1775624;80;20923;-70
2021/07/22 13:04:30;;;;;;;3.93;1.70;;;;;;;25.14;31.17;100300.02;1778827;78;20985;-70
2021/07/22 13:06:58;;;;;;;4.77;1.60;;;;;;;25.24;31.83;100299.42;1766512;80;21066;-71
2021/07/22 13:09:25;;;;;;;2.83;1.50;;;;;;;25.47;32.00;100299.45;1773254;79;21061;-71
2021/07/22 13:11:56;;;;;;;2.97;1.47;;;;;;;25.48;31.13;100329.73;1778821;78;21476;-71
2021/07/22 13:14:23;;;;;;;3.17;1.30;;;;;;;25.34;31.37;100309.56;1737972;80;21079;-72
2021/07/22 13:16:50;;;;;;;3.23;1.27;;;;;;;25.15;30.46;100300.80;1777417;78;21693;-72
2021/07/22 13:19:17;;;;;;;3.17;1.43;;;;;;;24.97;30.44;100301.20;1734394;81;21516;-72
2021/07/22 13:21:44;;;;;;;2.93;1.30;;;;;;;24.86;30.17;100294.75;1772335;79;21559;-72
2021/07/22 13:24:11;;;;;;;2.87;1.20;;;;;;;24.86;30.19;100298.84;1772178;78;21502;-73
2021/07/22 13:26:39;;;;;;;3.40;1.40;;;;;;;25.00;30.51;100292.87;1743190;81;20992;-72
2021/07/22 13:29:07;;;;;;;2.97;1.57;;;;;;;25.11;29.81;100302.66;1768390;78;21532;-72
2021/07/22 13:31:34;;;;;;;4.10;1.40;;;;;;;25.14;30.33;100292.38;1762620;78;21517;-71
2021/07/22 13:34:00;;;;;;;3.60;1.50;;;;;;;25.20;29.97;100288.20;1735983;80;21101;-73
2021/07/22 13:36:28;;;;;;;2.80;1.57;;;;;;;25.27;30.12;100288.32;1752689;80;21164;-72
2021/07/22 13:38:55;;;;;;;5.90;1.47;;;;;;;25.42;30.41;100286.64;1743996;80;21031;-73
2021/07/22 13:41:23;;;;;;;5.17;1.47;;;;;;;25.60;30.63;100281.47;1746746;80;21098;-73
2021/07/22 13:43:49;;;;;;;4.07;1.50;;;;;;;25.74;29.39;100290.72;1742282;80;21070;-73
2021/07/22 13:46:16;;;;;;;3.43;1.53;;;;;;;25.82;29.37;100291.64;1764777;80;21072;-73
2021/07/22 13:48:43;;;;;;;8.63;1.60;;;;;;;25.89;30.21;100290.38;1745992;81;21524;-72
2021/07/22 13:51:10;;;;;;;5.27;1.50;;;;;;;25.99;29.59;100291.70;1745008;80;21508;-71
2021/07/22 13:53:37;;;;;;;3.50;1.40;;;;;;;26.06;29.17;100284.99;1763322;79;20983;-70
2021/07/22 13:56:05;;;;;;;2.67;1.40;;;;;;;26.06;29.30;100286.36;1751155;81;21125;-72
2021/07/22 13:58:32;;;;;;;2.93;1.30;;;;;;;26.12;30.15;100286.81;1756576;81;21117;-72
2021/07/22 14:01:01;;;;;;;2.83;1.33;;;;;;;26.20;29.61;100278.34;1756599;81;21552;-72
2021/07/22 14:03:28;;;;;;;3.23;1.50;;;;;;;26.30;29.73;100277.50;1750735;81;20973;-72
2021/07/22 14:05:56;;;;;;;3.40;1.60;;;;;;;26.29;29.26;100282.20;1771224;80;21101;-71
2021/07/22 14:08:22;;;;;;;2.70;1.30;;;;;;;26.24;29.37;100281.13;1754521;80;21050;-72
2021/07/22 14:10:51;;;;;;;3.50;1.30;;;;;;;26.17;29.76;100278.30;1763626;80;21120;-72
2021/07/22 14:13:17;;;;;;;2.57;1.30;;;;;;;26.02;29.04;100280.02;1745984;81;21120;-71
2021/07/22 14:15:46;;;;;;;3.40;1.20;;;;;;;25.84;28.94;100281.13;1748207;79;20991;-70
2021/07/22 14:18:13;;;;;;;3.07;1.20;;;;;;;25.61;29.80;100276.23;1760310;79;20952;-71
2021/07/22 14:20:43;;;;;;;3.67;1.27;;;;;;;25.45;29.28;100279.09;1759054;78;20920;-70